createdAt,value
2019-02-15T00:00:45.891Z,75.60
2019-02-15T00:03:14.371Z,75.70
2019-02-15T00:05:42.696Z,75.50
2019-02-15T00:08:11.196Z,75.50
2019-02-15T00:10:39.788Z,76.10
2019-02-15T00:13:13.519Z,75.50
2019-02-15T00:15:38.149Z,75.30
2019-02-15T00:18:08.096Z,75.10
2019-02-15T00:20:40.899Z,75.10
2019-02-15T00:23:09.297Z,75.10
2019-02-15T00:25:37.795Z,75.10
2019-02-15T00:28:06.085Z,75.20
2019-02-15T00:30:34.421Z,75.50
2019-02-15T00:33:02.732Z,76.00
2019-02-15T00:35:31.331Z,76.00
2019-02-15T00:37:59.911Z,76.10
2019-02-15T00:40:28.228Z,76.20
2019-02-15T00:42:56.731Z,76.10
2019-02-15T00:45:29.286Z,75.90
2019-02-15T00:48:02.337Z,75.50
2019-02-15T00:50:32.714Z,75.60
2019-02-15T00:53:05.511Z,76.30
2019-02-15T00:55:38.491Z,75.40
2019-02-15T00:58:14.443Z,75.10
2019-02-15T01:00:59.622Z,75.40
2019-02-15T01:03:29.041Z,75.40
2019-02-15T01:06:10.852Z,75.20
2019-02-15T01:08:43.369Z,75.00
2019-02-15T01:11:13.581Z,74.80
2019-02-15T01:13:41.971Z,74.70
2019-02-15T01:16:10.272Z,75.00
2019-02-15T01:18:38.767Z,75.20
2019-02-15T01:21:07.080Z,75.70
2019-02-15T01:23:35.658Z,76.00
2019-02-15T01:26:17.595Z,76.20
2019-02-15T01:28:53.584Z,76.30
2019-02-15T01:31:26.347Z,76.30
2019-02-15T01:34:11.620Z,76.60
2019-02-15T01:36:41.745Z,76.80
2019-02-15T01:39:20.805Z,77.10
2019-02-15T01:42:07.137Z,76.90
2019-02-15T01:44:39.699Z,76.90
2019-02-15T01:47:09.755Z,76.90
2019-02-15T01:49:38.489Z,77.10
2019-02-15T01:52:06.989Z,77.30
2019-02-15T01:54:35.567Z,77.20
2019-02-15T01:57:04.141Z,77.20
2019-02-15T01:59:32.715Z,77.10
2019-02-15T02:02:01.299Z,77.00
2019-02-15T02:04:29.612Z,76.70
2019-02-15T02:06:57.937Z,76.40
2019-02-15T02:09:26.245Z,76.40
2019-02-15T02:11:54.566Z,77.30
2019-02-15T02:14:22.894Z,76.60
2019-02-15T02:16:51.299Z,76.80
2019-02-15T02:19:19.596Z,76.70
2019-02-15T02:21:47.917Z,76.60
2019-02-15T02:24:16.386Z,76.50
2019-02-15T02:26:44.757Z,76.50
2019-02-15T02:29:13.233Z,76.90
2019-02-15T02:31:41.717Z,75.80
2019-02-15T02:34:10.408Z,75.80
2019-02-15T02:36:50.132Z,75.80
2019-02-15T02:39:18.599Z,76.40
2019-02-15T02:41:46.961Z,75.60
2019-02-15T02:44:15.284Z,76.10
2019-02-15T02:46:44.254Z,76.30
2019-02-15T02:49:12.651Z,76.00
2019-02-15T02:51:41.019Z,75.80
2019-02-15T02:54:09.351Z,76.00
2019-02-15T02:56:38.097Z,76.30
2019-02-15T02:59:06.429Z,76.00
2019-02-15T03:01:34.896Z,75.80
2019-02-15T03:04:03.816Z,76.70
2019-02-15T03:06:32.402Z,77.30
2019-02-15T03:09:00.773Z,77.70
2019-02-15T03:11:29.290Z,77.80
2019-02-15T03:13:57.831Z,77.90
2019-02-15T03:16:26.225Z,78.00
2019-02-15T03:18:54.537Z,78.30
2019-02-15T03:21:22.871Z,78.10
2019-02-15T03:23:51.174Z,78.00
2019-02-15T03:26:19.497Z,77.90
2019-02-15T03:28:47.812Z,78.00
2019-02-15T03:31:16.214Z,78.00
2019-02-15T03:33:44.676Z,78.10
2019-02-15T03:36:14.629Z,78.30
2019-02-15T03:38:47.558Z,78.40
2019-02-15T03:41:29.857Z,78.30
2019-02-15T03:43:58.193Z,78.10
2019-02-15T03:46:26.556Z,79.00
2019-02-15T03:48:55.327Z,78.30
2019-02-15T03:51:23.709Z,78.40
2019-02-15T03:53:52.486Z,78.30
2019-02-15T03:56:21.240Z,77.90
2019-02-15T03:58:49.565Z,77.60
2019-02-15T04:01:37.308Z,77.40
2019-02-15T04:04:05.974Z,77.70
2019-02-15T04:06:34.354Z,77.90
2019-02-15T04:09:03.016Z,77.80
2019-02-15T04:11:31.352Z,77.60
2019-02-15T04:14:00.469Z,78.10
2019-02-15T04:16:29.033Z,78.50
2019-02-15T04:18:57.545Z,78.80
2019-02-15T04:21:25.853Z,78.80
2019-02-15T04:23:54.269Z,79.00
2019-02-15T04:26:22.771Z,79.40
2019-02-15T04:28:51.369Z,79.30
2019-02-15T04:31:19.784Z,79.10
2019-02-15T04:33:48.335Z,78.70
2019-02-15T04:36:16.725Z,78.80
2019-02-15T04:38:45.045Z,78.60
2019-02-15T04:41:13.407Z,78.70
2019-02-15T04:43:41.712Z,79.20
2019-02-15T04:46:10.116Z,80.00
2019-02-15T04:48:38.444Z,79.60
2019-02-15T04:51:07.034Z,79.70
2019-02-15T04:53:35.412Z,80.30
2019-02-15T04:56:03.981Z,80.60
2019-02-15T04:58:32.291Z,81.10
2019-02-15T05:01:00.609Z,81.40
2019-02-15T05:03:29.454Z,81.60
2019-02-15T05:05:58.037Z,81.80
2019-02-15T05:08:26.637Z,81.90
2019-02-15T05:10:55.026Z,82.20
2019-02-15T05:13:23.606Z,82.50
2019-02-15T05:15:51.923Z,82.80
2019-02-15T05:18:20.526Z,83.00
2019-02-15T05:20:48.905Z,83.20
2019-02-15T05:23:17.685Z,83.40
2019-02-15T05:25:46.011Z,83.60
2019-02-15T05:28:14.395Z,83.80
2019-02-15T05:30:43.140Z,83.70
2019-02-15T05:33:11.499Z,83.70
2019-02-15T05:35:40.052Z,83.80
2019-02-15T05:38:08.540Z,84.10
2019-02-15T05:40:36.866Z,84.30
2019-02-15T05:43:05.215Z,84.30
2019-02-15T05:45:33.598Z,84.10
2019-02-15T05:48:01.900Z,83.90
2019-02-15T05:50:30.586Z,83.90
2019-02-15T05:52:59.339Z,83.80
2019-02-15T05:55:27.908Z,83.60
2019-02-15T05:57:56.277Z,84.50
2019-02-15T06:00:24.714Z,83.70
2019-02-15T06:02:53.017Z,83.60
2019-02-15T06:05:21.330Z,83.70
2019-02-15T06:07:49.929Z,83.40
2019-02-15T06:10:18.596Z,83.30
2019-02-15T06:12:47.095Z,83.30
2019-02-15T06:15:15.838Z,83.00
2019-02-15T06:17:44.457Z,82.90
2019-02-15T06:20:12.844Z,82.80
2019-02-15T06:22:41.284Z,82.80
2019-02-15T06:25:09.667Z,83.00
2019-02-15T06:27:37.997Z,82.80
2019-02-15T06:30:08.256Z,82.70
2019-02-15T06:32:36.586Z,82.70
2019-02-15T06:35:05.242Z,82.70
2019-02-15T06:37:33.746Z,82.90
2019-02-15T06:40:02.266Z,82.80
2019-02-15T06:42:30.817Z,82.70
2019-02-15T06:44:59.306Z,82.70
2019-02-15T06:47:27.900Z,82.30
2019-02-15T06:49:56.550Z,81.90
2019-02-15T06:52:24.872Z,81.60
2019-02-15T06:54:53.216Z,80.80
2019-02-15T06:57:21.730Z,81.40
2019-02-15T06:59:51.998Z,81.30
2019-02-15T07:02:24.800Z,81.10
2019-02-15T07:05:11.216Z,80.80
2019-02-15T07:07:39.524Z,80.60
2019-02-15T07:10:07.896Z,80.30
2019-02-15T07:12:36.302Z,80.20
2019-02-15T07:15:05.874Z,80.40
2019-02-15T07:17:34.468Z,80.10
2019-02-15T07:20:03.017Z,80.50
2019-02-15T07:22:31.354Z,80.50
2019-02-15T07:24:59.747Z,80.60
2019-02-15T07:27:28.075Z,80.90
2019-02-15T07:29:56.383Z,80.50
2019-02-15T07:32:24.893Z,80.60
2019-02-15T07:34:53.198Z,80.80
2019-02-15T07:37:21.549Z,80.70
2019-02-15T07:39:49.851Z,80.50
2019-02-15T07:42:18.453Z,80.00
2019-02-15T07:44:46.968Z,80.00
2019-02-15T07:47:15.624Z,79.80
2019-02-15T07:49:44.014Z,79.50
2019-02-15T07:52:12.625Z,79.40
2019-02-15T07:54:41.163Z,78.90
2019-02-15T07:57:09.651Z,78.90
2019-02-15T07:59:38.136Z,78.70
2019-02-15T08:02:06.466Z,78.50
2019-02-15T08:04:34.786Z,78.30
2019-02-15T08:07:03.193Z,78.30
2019-02-15T08:09:31.750Z,77.80
2019-02-15T08:12:00.625Z,77.50
2019-02-15T08:14:29.281Z,76.90
2019-02-15T08:16:57.827Z,76.60
2019-02-15T08:19:26.699Z,76.20
2019-02-15T08:21:55.376Z,75.80
2019-02-15T08:24:24.141Z,75.50
2019-02-15T08:26:52.727Z,75.30
2019-02-15T08:29:21.069Z,75.10
2019-02-15T08:31:49.430Z,75.70
2019-02-15T08:34:17.940Z,74.50
2019-02-15T08:36:46.252Z,74.30
2019-02-15T08:39:14.762Z,74.00
2019-02-15T08:42:00.183Z,73.60
2019-02-15T08:44:13.825Z,73.80
2019-02-15T08:46:42.148Z,73.80
2019-02-15T08:49:10.918Z,73.60
2019-02-15T08:51:39.237Z,73.10
2019-02-15T08:54:07.557Z,73.00
2019-02-15T08:56:35.865Z,73.00
2019-02-15T08:59:04.449Z,72.60
2019-02-15T09:01:32.799Z,72.50
2019-02-15T09:04:01.269Z,72.50
2019-02-15T09:06:29.857Z,71.90
2019-02-15T09:08:58.165Z,71.10
2019-02-15T09:11:26.942Z,72.10
2019-02-15T09:13:55.271Z,72.20
2019-02-15T09:16:23.602Z,71.60
2019-02-15T09:18:52.452Z,71.30
2019-02-15T09:21:21.213Z,70.80
2019-02-15T09:23:49.687Z,70.80
2019-02-15T09:26:18.523Z,70.10
2019-02-15T09:28:48.873Z,69.50
2019-02-15T09:31:17.378Z,69.50
2019-02-15T09:33:45.708Z,68.20
2019-02-15T09:36:14.297Z,67.90
2019-02-15T09:38:42.619Z,67.70
2019-02-15T09:41:11.115Z,66.50
2019-02-15T09:43:39.594Z,65.70
2019-02-15T09:46:07.926Z,66.40
2019-02-15T09:48:36.429Z,67.10
2019-02-15T09:51:04.743Z,68.10
2019-02-15T09:53:33.515Z,67.70
2019-02-15T09:56:01.831Z,67.00
2019-02-15T09:58:30.161Z,66.30
2019-02-15T10:00:58.657Z,66.30
2019-02-15T10:03:26.993Z,66.30
2019-02-15T10:05:55.309Z,65.30
2019-02-15T10:08:23.927Z,63.40
2019-02-15T10:10:52.545Z,61.90
2019-02-15T10:13:21.138Z,60.60
2019-02-15T10:15:49.529Z,60.70
2019-02-15T10:18:17.842Z,59.80
2019-02-15T10:20:46.157Z,59.30
2019-02-15T10:23:14.493Z,59.40
2019-02-15T10:25:43.061Z,59.10
2019-02-15T10:28:11.394Z,59.10
2019-02-15T10:30:39.937Z,59.00
2019-02-15T10:33:08.264Z,58.30
2019-02-15T10:35:37.410Z,58.00
2019-02-15T10:38:05.806Z,58.40
2019-02-15T10:40:34.176Z,58.20
2019-02-15T10:43:02.704Z,58.30
2019-02-15T10:45:31.276Z,58.80
2019-02-15T10:47:59.603Z,58.60
2019-02-15T10:50:27.917Z,56.90
2019-02-15T10:52:56.502Z,57.70
2019-02-15T10:55:24.993Z,58.80
2019-02-15T10:57:53.323Z,58.60
2019-02-15T11:00:22.216Z,58.40
2019-02-15T11:02:50.875Z,57.30
2019-02-15T11:05:19.264Z,57.00
2019-02-15T11:07:47.601Z,56.70
2019-02-15T11:10:16.354Z,57.70
2019-02-15T11:12:44.944Z,56.30
2019-02-15T11:15:15.552Z,54.80
2019-02-15T11:17:44.135Z,55.70
2019-02-15T11:20:14.758Z,54.20
2019-02-15T11:22:43.329Z,52.80
2019-02-15T11:25:11.921Z,54.00
2019-02-15T11:27:40.250Z,52.80
2019-02-15T11:30:11.820Z,54.30
2019-02-15T11:32:40.634Z,53.20
2019-02-15T11:35:15.017Z,53.10
2019-02-15T11:37:43.343Z,51.90
2019-02-15T11:40:13.961Z,51.60
2019-02-15T11:42:42.432Z,52.00
2019-02-15T11:45:14.327Z,51.70
2019-02-15T11:47:42.834Z,50.40
2019-02-15T11:50:13.243Z,49.90
2019-02-15T11:52:41.644Z,49.40
2019-02-15T11:55:10.809Z,50.00
2019-02-15T11:57:39.219Z,49.20
2019-02-15T12:00:14.850Z,49.80
2019-02-15T12:02:43.311Z,47.40
2019-02-15T12:05:11.625Z,49.20
2019-02-15T12:07:39.946Z,48.80
2019-02-15T12:10:10.106Z,47.00
2019-02-15T12:12:38.678Z,47.20
2019-02-15T12:15:08.643Z,47.30
2019-02-15T12:17:37.039Z,47.00
2019-02-15T12:20:08.621Z,45.90
2019-02-15T12:22:37.127Z,45.20
2019-02-15T12:25:06.199Z,44.20
2019-02-15T12:27:34.609Z,42.30
2019-02-15T12:30:03.081Z,40.40
2019-02-15T12:32:31.954Z,38.60
2019-02-15T12:35:00.541Z,35.60
2019-02-15T12:37:28.959Z,33.20
2019-02-15T12:39:57.346Z,30.70
2019-02-15T12:42:25.850Z,29.50
2019-02-15T12:44:54.815Z,29.00
2019-02-15T12:47:23.148Z,29.10
2019-02-15T12:49:51.525Z,29.00
2019-02-15T12:52:19.860Z,27.80
2019-02-15T12:54:48.453Z,27.30
2019-02-15T12:57:16.797Z,26.90
2019-02-15T12:59:45.168Z,26.20
2019-02-15T13:02:13.551Z,26.30
2019-02-15T13:04:41.890Z,26.20
2019-02-15T13:07:10.205Z,26.10
2019-02-15T13:09:38.694Z,25.70
2019-02-15T13:12:07.078Z,25.20
2019-02-15T13:14:35.384Z,25.20
2019-02-15T13:17:03.982Z,25.20
2019-02-15T13:19:32.364Z,24.80
2019-02-15T13:22:00.886Z,24.40
2019-02-15T13:24:29.211Z,24.90
2019-02-15T13:26:57.526Z,24.90
2019-02-15T13:29:26.027Z,25.60
2019-02-15T13:31:54.663Z,25.00
2019-02-15T13:34:23.255Z,23.90
2019-02-15T13:36:51.914Z,24.20
2019-02-15T13:39:20.253Z,23.20
2019-02-15T13:41:49.042Z,22.50
2019-02-15T13:44:17.934Z,21.30
2019-02-15T13:46:46.378Z,21.80
2019-02-15T13:49:14.983Z,20.70
2019-02-15T13:51:43.579Z,20.90
2019-02-15T13:54:12.104Z,20.40
2019-02-15T13:56:41.087Z,20.90
2019-02-15T13:59:09.428Z,20.70
2019-02-15T14:01:37.797Z,20.10
2019-02-15T14:04:06.319Z,19.50
2019-02-15T14:06:34.931Z,19.90
2019-02-15T14:09:04.633Z,20.40
2019-02-15T14:11:33.340Z,19.70
2019-02-15T14:14:01.665Z,20.20
2019-02-15T14:16:30.256Z,19.80
2019-02-15T14:18:58.908Z,20.30
2019-02-15T14:21:27.665Z,20.10
2019-02-15T14:23:56.017Z,19.80
2019-02-15T14:26:24.358Z,19.70
2019-02-15T14:28:52.721Z,19.80
2019-02-15T14:31:21.119Z,19.40
2019-02-15T14:33:49.449Z,20.30
2019-02-15T14:36:17.876Z,20.50
2019-02-15T14:38:46.489Z,19.90
2019-02-15T14:41:14.861Z,19.80
2019-02-15T14:43:43.444Z,19.50
2019-02-15T14:46:11.876Z,20.10
2019-02-15T14:48:40.568Z,19.10
2019-02-15T14:51:09.065Z,19.90
2019-02-15T14:53:37.421Z,19.70
2019-02-15T14:56:05.825Z,20.30
2019-02-15T14:58:34.129Z,20.30
2019-02-15T15:01:02.534Z,20.80
2019-02-15T15:03:30.859Z,20.50
2019-02-15T15:05:59.337Z,20.60
2019-02-15T15:08:27.660Z,20.30
2019-02-15T15:10:56.271Z,19.80
2019-02-15T15:13:24.586Z,21.10
2019-02-15T15:15:53.241Z,21.10
2019-02-15T15:18:21.547Z,20.30
2019-02-15T15:20:49.949Z,20.20
2019-02-15T15:23:18.265Z,20.30
2019-02-15T15:25:46.760Z,18.90
2019-02-15T15:28:15.236Z,18.70
2019-02-15T15:30:43.644Z,20.00
2019-02-15T15:33:12.032Z,21.30
2019-02-15T15:35:40.355Z,22.50
2019-02-15T15:38:09.283Z,24.10
2019-02-15T15:40:37.614Z,26.10
2019-02-15T15:43:05.958Z,27.50
2019-02-15T15:45:34.343Z,28.50
2019-02-15T15:48:02.726Z,30.60
2019-02-15T15:50:31.071Z,32.30
2019-02-15T15:52:59.423Z,33.80
2019-02-15T15:55:28.295Z,34.50
2019-02-15T15:57:56.799Z,35.20
2019-02-15T16:00:25.333Z,36.30
2019-02-15T16:02:53.883Z,37.20
2019-02-15T16:05:22.211Z,38.10
2019-02-15T16:07:50.629Z,37.60
2019-02-15T16:10:19.024Z,38.60
2019-02-15T16:12:47.357Z,39.70
2019-02-15T16:15:15.678Z,41.10
2019-02-15T16:17:44.072Z,41.40
2019-02-15T16:20:13.240Z,41.90
2019-02-15T16:22:41.636Z,42.10
2019-02-15T16:25:10.394Z,41.80
2019-02-15T16:27:38.749Z,42.00
2019-02-15T16:30:12.687Z,42.40
2019-02-15T16:32:41.295Z,43.30
2019-02-15T16:35:09.941Z,44.00
2019-02-15T16:37:38.497Z,44.20
2019-02-15T16:40:11.746Z,44.50
2019-02-15T16:42:39.963Z,45.00
2019-02-15T16:45:11.056Z,45.00
2019-02-15T16:47:39.379Z,45.10
2019-02-15T16:50:08.349Z,45.40
2019-02-15T16:52:36.673Z,46.00
2019-02-15T16:55:12.736Z,47.10
2019-02-15T16:57:37.210Z,46.00
2019-02-15T17:00:08.154Z,46.00
2019-02-15T17:02:36.684Z,46.40
2019-02-15T17:05:06.295Z,46.60
2019-02-15T17:07:34.688Z,47.10
2019-02-15T17:10:03.014Z,47.40
2019-02-15T17:12:31.498Z,47.90
2019-02-15T17:15:00.027Z,48.50
2019-02-15T17:17:28.520Z,49.30
2019-02-15T17:19:57.257Z,49.80
2019-02-15T17:22:25.586Z,49.90
2019-02-15T17:24:53.967Z,50.40
2019-02-15T17:27:22.459Z,50.60
2019-02-15T17:29:50.811Z,50.50
2019-02-15T17:32:19.188Z,50.70
2019-02-15T17:34:47.492Z,50.40
2019-02-15T17:37:15.833Z,50.50
2019-02-15T17:39:44.129Z,50.40
2019-02-15T17:42:12.623Z,50.90
2019-02-15T17:44:42.783Z,51.00
2019-02-15T17:47:19.790Z,51.30
2019-02-15T17:49:48.182Z,51.30
2019-02-15T17:52:16.574Z,51.70
2019-02-15T17:54:45.358Z,51.90
2019-02-15T17:57:13.927Z,52.10
2019-02-15T17:59:42.265Z,52.30
2019-02-15T18:02:10.587Z,52.40
2019-02-15T18:04:38.918Z,52.30
2019-02-15T18:07:07.363Z,52.80
2019-02-15T18:09:35.766Z,53.00
2019-02-15T18:12:04.260Z,53.00
2019-02-15T18:14:32.581Z,53.00
2019-02-15T18:17:02.176Z,53.20
2019-02-15T18:19:30.509Z,53.40
2019-02-15T18:21:58.830Z,53.80
2019-02-15T18:24:27.599Z,53.90
2019-02-15T18:26:55.920Z,53.90
2019-02-15T18:29:24.273Z,53.80
2019-02-15T18:31:52.666Z,53.90
2019-02-15T18:34:20.998Z,54.00
2019-02-15T18:36:49.314Z,53.70
2019-02-15T18:39:17.948Z,53.90
2019-02-15T18:41:46.277Z,54.90
2019-02-15T18:44:15.107Z,55.20
2019-02-15T18:46:43.602Z,55.70
2019-02-15T18:49:19.212Z,55.90
2019-02-15T18:51:42.172Z,56.20
2019-02-15T18:54:10.879Z,56.50
2019-02-15T18:56:39.257Z,56.80
2019-02-15T18:59:07.899Z,57.20
2019-02-15T19:01:36.396Z,57.60
2019-02-15T19:04:04.853Z,57.70
2019-02-15T19:06:35.065Z,57.80
2019-02-15T19:09:04.211Z,58.00
2019-02-15T19:11:32.872Z,57.90
2019-02-15T19:14:01.489Z,57.30
2019-02-15T19:16:30.025Z,57.60
2019-02-15T19:18:58.852Z,57.80
2019-02-15T19:21:39.709Z,57.30
2019-02-15T19:24:08.130Z,58.30
2019-02-15T19:26:36.767Z,59.20
2019-02-15T19:29:05.310Z,60.50
2019-02-15T19:31:35.442Z,59.90
2019-02-15T19:34:04.451Z,59.60
2019-02-15T19:36:32.936Z,59.80
2019-02-15T19:39:07.287Z,59.80
2019-02-15T19:41:35.668Z,60.00
2019-02-15T19:44:05.820Z,60.30
2019-02-15T19:46:34.309Z,60.80
2019-02-15T19:49:06.162Z,61.20
2019-02-15T19:51:36.290Z,61.60
2019-02-15T19:54:04.675Z,61.80
2019-02-15T19:56:36.071Z,62.20
2019-02-15T19:59:07.704Z,62.40
2019-02-15T20:01:36.101Z,62.20
2019-02-15T20:04:04.506Z,62.40
2019-02-15T20:06:33.409Z,62.70
2019-02-15T20:09:01.769Z,62.50
2019-02-15T20:11:30.123Z,62.60
2019-02-15T20:14:00.064Z,63.30
2019-02-15T20:16:28.831Z,63.70
2019-02-15T20:18:58.775Z,64.00
2019-02-15T20:21:30.371Z,64.00
2019-02-15T20:24:00.429Z,64.40
2019-02-15T20:26:30.417Z,64.00
2019-02-15T20:29:00.601Z,63.80
2019-02-15T20:31:28.993Z,64.30
2019-02-15T20:33:58.947Z,64.60
2019-02-15T20:36:29.600Z,64.60
2019-02-15T20:39:00.697Z,64.70
2019-02-15T20:41:30.700Z,65.10
2019-02-15T20:43:59.600Z,65.70
2019-02-15T20:46:29.762Z,65.40
2019-02-15T20:49:04.811Z,65.20
2019-02-15T20:51:46.114Z,65.00
2019-02-15T20:54:14.750Z,65.00
2019-02-15T20:56:43.258Z,65.70
2019-02-15T20:59:11.602Z,66.00
2019-02-15T21:01:41.596Z,66.00
2019-02-15T21:04:10.176Z,66.20
2019-02-15T21:06:38.555Z,66.40
2019-02-15T21:09:07.031Z,66.40
2019-02-15T21:11:35.665Z,66.50
2019-02-15T21:14:04.426Z,66.40
2019-02-15T21:16:33.025Z,66.40
2019-02-15T21:19:01.387Z,66.40
2019-02-15T21:21:29.840Z,66.30
2019-02-15T21:23:58.626Z,66.40
2019-02-15T21:26:27.252Z,66.60
2019-02-15T21:28:55.640Z,66.90
2019-02-15T21:31:24.436Z,66.70
2019-02-15T21:33:53.171Z,66.60
2019-02-15T21:36:21.781Z,66.70
2019-02-15T21:38:50.573Z,67.30
2019-02-15T21:41:19.287Z,67.50
2019-02-15T21:43:47.684Z,67.40
2019-02-15T21:46:16.104Z,67.50
2019-02-15T21:48:44.501Z,67.50
2019-02-15T21:51:13.029Z,68.00
2019-02-15T21:53:41.520Z,68.20
2019-02-15T21:56:10.133Z,68.10
2019-02-15T21:58:38.772Z,68.30
2019-02-15T22:01:07.479Z,68.60
2019-02-15T22:03:35.820Z,68.60
2019-02-15T22:06:04.402Z,68.40
2019-02-15T22:08:32.821Z,68.50
2019-02-15T22:11:01.444Z,68.60
2019-02-15T22:13:29.891Z,68.50
2019-02-15T22:15:58.420Z,69.60
2019-02-15T22:18:26.791Z,69.30
2019-02-15T22:20:55.631Z,69.60
2019-02-15T22:23:24.248Z,70.00
2019-02-15T22:25:52.646Z,70.20
2019-02-15T22:28:21.231Z,70.50
2019-02-15T22:30:49.591Z,70.70
2019-02-15T22:33:18.173Z,70.90
2019-02-15T22:35:46.520Z,71.10
2019-02-15T22:38:15.290Z,71.20
2019-02-15T22:40:44.130Z,71.30
2019-02-15T22:43:20.810Z,71.30
2019-02-15T22:45:49.232Z,71.50
2019-02-15T22:48:18.041Z,71.40
2019-02-15T22:50:46.505Z,71.10
2019-02-15T22:53:15.201Z,70.90
2019-02-15T22:55:43.679Z,71.10
2019-02-15T22:58:12.088Z,71.20
2019-02-15T23:00:50.744Z,71.20
2019-02-15T23:03:21.708Z,71.40
2019-02-15T23:05:50.165Z,72.10
2019-02-15T23:08:18.769Z,72.70
2019-02-15T23:10:47.387Z,72.90
2019-02-15T23:13:15.741Z,73.10
2019-02-15T23:15:44.382Z,72.90
2019-02-15T23:18:12.750Z,72.70
2019-02-15T23:20:45.231Z,73.40
2019-02-15T23:23:11.623Z,72.80
2019-02-15T23:25:39.941Z,72.80
2019-02-15T23:28:08.328Z,73.10
2019-02-15T23:30:36.716Z,73.00
2019-02-15T23:33:05.063Z,73.00
2019-02-15T23:35:33.378Z,73.10
2019-02-15T23:38:01.728Z,72.50
2019-02-15T23:40:30.543Z,72.10
2019-02-15T23:42:58.912Z,72.00
2019-02-15T23:45:27.866Z,72.10
2019-02-15T23:47:56.231Z,72.20
2019-02-15T23:50:25.065Z,71.90
2019-02-15T23:52:53.544Z,71.60
2019-02-15T23:55:22.046Z,71.40
2019-02-15T23:57:50.356Z,71.50
